createdAt,value
2022-11-05T00:00:04.526Z,84.94
2022-11-05T00:02:50.586Z,85.50
2022-11-05T00:05:36.564Z,84.97
2022-11-05T00:08:23.385Z,85.83
2022-11-05T00:10:52.836Z,85.46
2022-11-05T00:13:38.373Z,85.38
2022-11-05T00:16:35.215Z,86.14
2022-11-05T00:19:10.004Z,86.51
2022-11-05T00:21:57.351Z,86.24
2022-11-05T00:24:43.436Z,84.74
2022-11-05T00:27:12.788Z,86.10
2022-11-05T00:29:40.791Z,85.31
2022-11-05T00:32:08.824Z,85.80
2022-11-05T00:34:36.832Z,85.75
2022-11-05T00:37:04.868Z,86.07
2022-11-05T00:39:32.846Z,85.45
2022-11-05T00:42:18.155Z,86.21
2022-11-05T00:45:01.884Z,86.20
2022-11-05T00:47:47.708Z,85.94
2022-11-05T00:50:15.512Z,85.85
2022-11-05T00:52:59.464Z,85.97
2022-11-05T00:55:34.384Z,86.14
2022-11-05T00:58:03.783Z,86.32
2022-11-05T01:00:34.834Z,86.50
2022-11-05T01:03:04.811Z,86.42
2022-11-05T01:05:33.869Z,86.85
2022-11-05T01:08:02.651Z,86.00
2022-11-05T01:10:31.130Z,87.59
2022-11-05T01:12:59.169Z,86.71
2022-11-05T01:15:27.177Z,86.93
2022-11-05T01:17:56.444Z,86.49
2022-11-05T01:20:24.532Z,85.80
2022-11-05T01:22:52.430Z,85.55
2022-11-05T01:25:20.707Z,85.86
2022-11-05T01:27:48.674Z,85.39
2022-11-05T01:30:16.898Z,85.39
2022-11-05T01:32:45.119Z,86.96
2022-11-05T01:35:16.343Z,87.27
2022-11-05T01:37:45.322Z,87.30
2022-11-05T01:40:14.977Z,87.25
2022-11-05T01:42:43.324Z,86.80
2022-11-05T01:45:15.726Z,86.87
2022-11-05T01:47:51.734Z,87.18
2022-11-05T01:50:31.299Z,87.05
2022-11-05T01:53:06.147Z,85.00
2022-11-05T01:55:37.871Z,85.56
2022-11-05T01:58:08.855Z,86.80
2022-11-05T02:00:37.525Z,85.64
2022-11-05T02:03:05.846Z,86.35
2022-11-05T02:05:36.102Z,86.80
2022-11-05T02:08:04.457Z,86.02
2022-11-05T02:10:33.774Z,86.50
2022-11-05T02:13:03.612Z,87.77
2022-11-05T02:15:41.946Z,86.38
2022-11-05T02:18:20.488Z,86.28
2022-11-05T02:21:03.799Z,86.66
2022-11-05T02:23:57.625Z,86.36
2022-11-05T02:27:03.164Z,87.18
2022-11-05T02:30:06.220Z,86.47
2022-11-05T02:32:44.987Z,86.35
2022-11-05T02:35:22.811Z,86.41
2022-11-05T02:37:54.409Z,86.55
2022-11-05T02:40:28.534Z,86.97
2022-11-05T02:43:04.642Z,85.23
2022-11-05T02:45:42.418Z,86.52
2022-11-05T02:48:21.827Z,86.62
2022-11-05T02:50:56.816Z,84.86
2022-11-05T02:53:35.665Z,86.12
2022-11-05T02:56:09.925Z,85.37
2022-11-05T02:58:37.840Z,86.50
2022-11-05T03:01:07.016Z,86.06
2022-11-05T03:03:40.248Z,85.41
2022-11-05T03:06:32.929Z,86.00
2022-11-05T03:09:22.959Z,86.62
2022-11-05T03:12:01.732Z,87.54
2022-11-05T03:14:38.911Z,87.24
2022-11-05T03:17:14.118Z,86.25
2022-11-05T03:19:50.597Z,86.71
2022-11-05T03:22:26.146Z,85.90
2022-11-05T03:24:59.348Z,86.18
2022-11-05T03:27:31.698Z,85.86
2022-11-05T03:30:04.357Z,86.17
2022-11-05T03:32:36.833Z,86.65
2022-11-05T03:35:13.465Z,85.06
2022-11-05T03:37:44.145Z,86.59
2022-11-05T03:40:15.485Z,85.57
2022-11-05T03:42:47.299Z,85.29
2022-11-05T03:45:19.001Z,85.55
2022-11-05T03:47:48.916Z,86.32
2022-11-05T03:50:23.350Z,85.10
2022-11-05T03:52:54.415Z,86.24
2022-11-05T03:55:27.078Z,85.97
2022-11-05T03:57:56.890Z,85.71
2022-11-05T04:00:25.182Z,85.48
2022-11-05T04:02:53.217Z,85.66
2022-11-05T04:05:22.829Z,86.06
2022-11-05T04:08:13.856Z,85.16
2022-11-05T04:10:59.960Z,85.95
2022-11-05T04:13:28.276Z,84.96
2022-11-05T04:16:15.163Z,86.51
2022-11-05T04:18:43.561Z,85.55
2022-11-05T04:21:30.375Z,85.43
2022-11-05T04:24:10.683Z,86.80
2022-11-05T04:26:39.758Z,85.71
2022-11-05T04:29:27.627Z,85.93
2022-11-05T04:31:55.920Z,86.54
2022-11-05T04:34:23.894Z,86.43
2022-11-05T04:36:53.879Z,84.93
2022-11-05T04:39:22.515Z,85.95
2022-11-05T04:41:50.532Z,84.40
2022-11-05T04:44:18.486Z,85.24
2022-11-05T04:46:46.471Z,85.78
2022-11-05T04:49:14.376Z,86.58
2022-11-05T04:51:42.346Z,85.60
2022-11-05T04:54:11.677Z,85.67
2022-11-05T04:56:39.572Z,85.97
2022-11-05T04:59:07.509Z,85.55
2022-11-05T05:01:35.599Z,84.90
2022-11-05T05:04:03.716Z,85.28
2022-11-05T05:06:31.632Z,85.55
2022-11-05T05:08:59.631Z,84.85
2022-11-05T05:11:28.954Z,86.10
2022-11-05T05:13:56.886Z,84.56
2022-11-05T05:16:26.581Z,85.09
2022-11-05T05:18:55.610Z,85.32
2022-11-05T05:21:42.167Z,84.92
2022-11-05T05:24:13.080Z,85.44
2022-11-05T05:26:44.138Z,85.08
2022-11-05T05:29:12.798Z,85.88
2022-11-05T05:31:41.190Z,84.89
2022-11-05T05:34:12.522Z,85.19
2022-11-05T05:36:40.561Z,85.11
2022-11-05T05:39:10.739Z,86.12
2022-11-05T05:41:38.883Z,84.94
2022-11-05T05:44:08.737Z,85.00
2022-11-05T05:46:36.770Z,84.34
2022-11-05T05:49:11.059Z,84.35
2022-11-05T05:51:40.280Z,83.96
2022-11-05T05:54:13.564Z,84.20
2022-11-05T05:56:43.898Z,85.61
2022-11-05T05:59:13.466Z,85.80
2022-11-05T06:01:41.676Z,85.30
2022-11-05T06:04:10.548Z,84.59
2022-11-05T06:06:38.674Z,84.91
2022-11-05T06:09:06.689Z,85.03
2022-11-05T06:11:34.755Z,84.70
2022-11-05T06:14:02.696Z,84.44
2022-11-05T06:16:35.435Z,84.21
2022-11-05T06:19:03.618Z,83.72
2022-11-05T06:21:31.686Z,84.19
2022-11-05T06:24:02.130Z,84.28
2022-11-05T06:26:30.224Z,84.29
2022-11-05T06:28:58.276Z,84.01
2022-11-05T06:31:26.224Z,84.08
2022-11-05T06:33:55.521Z,84.22
2022-11-05T06:36:23.526Z,84.07
2022-11-05T06:38:51.463Z,84.06
2022-11-05T06:41:19.403Z,85.50
2022-11-05T06:43:47.314Z,85.30
2022-11-05T06:46:15.202Z,84.46
2022-11-05T06:48:43.171Z,85.18
2022-11-05T06:51:12.424Z,86.66
2022-11-05T06:53:40.392Z,85.58
2022-11-05T06:56:09.137Z,85.69
2022-11-05T06:58:37.652Z,84.48
2022-11-05T07:01:08.013Z,84.77
2022-11-05T07:03:36.593Z,84.57
2022-11-05T07:06:07.241Z,84.96
2022-11-05T07:08:37.827Z,84.94
2022-11-05T07:11:06.487Z,85.11
2022-11-05T07:13:34.438Z,84.22
2022-11-05T07:16:02.429Z,84.31
2022-11-05T07:18:30.440Z,84.23
2022-11-05T07:21:00.447Z,83.65
2022-11-05T07:23:28.459Z,83.86
2022-11-05T07:25:57.797Z,83.56
2022-11-05T07:28:25.775Z,83.67
2022-11-05T07:30:54.024Z,83.23
2022-11-05T07:33:21.976Z,82.25
2022-11-05T07:35:49.984Z,82.66
2022-11-05T07:38:19.035Z,82.31
2022-11-05T07:40:47.554Z,81.93
2022-11-05T07:43:17.131Z,79.48
2022-11-05T07:45:46.802Z,78.82
2022-11-05T07:48:14.860Z,78.89
2022-11-05T07:50:42.791Z,77.87
2022-11-05T07:53:12.830Z,74.07
2022-11-05T07:55:42.171Z,71.36
2022-11-05T07:58:10.688Z,70.38
2022-11-05T08:00:40.169Z,67.52
2022-11-05T08:03:11.824Z,59.26
2022-11-05T08:05:44.440Z,54.11
2022-11-05T08:08:15.556Z,53.90
2022-11-05T08:10:44.101Z,60.60
2022-11-05T08:13:13.166Z,63.52
2022-11-05T08:15:43.329Z,63.78
2022-11-05T08:18:13.846Z,60.26
2022-11-05T08:20:43.526Z,62.35
2022-11-05T08:23:12.580Z,65.78
2022-11-05T08:25:43.248Z,62.41
2022-11-05T08:28:13.102Z,56.80
2022-11-05T08:30:42.665Z,55.68
2022-11-05T08:33:13.503Z,57.28
2022-11-05T08:35:41.816Z,62.20
2022-11-05T08:38:13.614Z,65.68
2022-11-05T08:40:42.563Z,69.23
2022-11-05T08:43:13.062Z,69.80
2022-11-05T08:45:42.788Z,70.99
2022-11-05T08:48:12.716Z,70.92
2022-11-05T08:50:40.756Z,70.82
2022-11-05T08:53:10.749Z,70.17
2022-11-05T08:55:39.438Z,69.82
2022-11-05T08:58:10.634Z,68.72
2022-11-05T09:00:39.276Z,66.61
2022-11-05T09:03:10.510Z,65.48
2022-11-05T09:05:40.778Z,66.07
2022-11-05T09:08:10.279Z,66.72
2022-11-05T09:10:39.227Z,63.71
2022-11-05T09:13:11.733Z,52.05
2022-11-05T09:15:43.170Z,51.07
2022-11-05T09:18:14.931Z,52.30
2022-11-05T09:20:43.392Z,44.56
2022-11-05T09:23:14.087Z,41.51
2022-11-05T09:25:42.268Z,42.04
2022-11-05T09:28:16.437Z,45.73
2022-11-05T09:30:46.839Z,46.22
2022-11-05T09:33:17.577Z,46.79
2022-11-05T09:35:46.446Z,47.20
2022-11-05T09:38:14.787Z,50.00
2022-11-05T09:40:48.098Z,53.46
2022-11-05T09:43:18.620Z,50.43
2022-11-05T09:45:50.424Z,49.22
2022-11-05T09:48:25.357Z,44.70
2022-11-05T09:50:54.791Z,42.57
2022-11-05T09:53:24.503Z,39.16
2022-11-05T09:55:55.405Z,40.46
2022-11-05T09:58:37.270Z,44.73
2022-11-05T10:01:08.593Z,44.69
2022-11-05T10:03:45.625Z,45.26
2022-11-05T10:06:19.734Z,41.28
2022-11-05T10:08:52.643Z,41.44
2022-11-05T10:11:25.129Z,45.49
2022-11-05T10:13:57.976Z,43.56
2022-11-05T10:16:28.541Z,38.90
2022-11-05T10:19:02.106Z,36.19
2022-11-05T10:21:59.713Z,34.49
2022-11-05T10:24:21.452Z,39.17
2022-11-05T10:26:51.720Z,35.28
2022-11-05T10:29:27.296Z,37.50
2022-11-05T10:31:57.078Z,37.92
2022-11-05T10:34:32.593Z,36.17
2022-11-05T10:37:00.789Z,35.74
2022-11-05T10:39:31.108Z,33.91
2022-11-05T10:42:11.456Z,32.81
2022-11-05T10:44:47.676Z,27.78
2022-11-05T10:47:35.119Z,28.33
2022-11-05T10:50:10.773Z,27.21
2022-11-05T10:52:41.110Z,29.26
2022-11-05T10:55:21.950Z,28.05
2022-11-05T10:57:50.479Z,28.17
2022-11-05T11:00:36.504Z,30.59
2022-11-05T11:03:06.754Z,30.77
2022-11-05T11:05:39.083Z,32.73
2022-11-05T11:08:23.393Z,36.53
2022-11-05T11:10:53.653Z,40.12
2022-11-05T11:13:23.543Z,41.95
2022-11-05T11:15:51.948Z,40.62
2022-11-05T11:18:32.469Z,43.62
2022-11-05T11:21:14.731Z,46.55
2022-11-05T11:23:44.678Z,49.18
2022-11-05T11:26:14.239Z,45.70
2022-11-05T11:28:47.157Z,39.82
2022-11-05T11:31:17.553Z,45.09
2022-11-05T11:33:48.768Z,47.07
2022-11-05T11:36:20.704Z,47.23
2022-11-05T11:38:49.183Z,44.73
2022-11-05T11:41:26.318Z,47.35
2022-11-05T11:43:58.363Z,47.89
2022-11-05T11:46:26.926Z,48.89
2022-11-05T11:48:54.906Z,47.70
2022-11-05T11:51:32.475Z,45.53
2022-11-05T11:54:01.602Z,40.70
2022-11-05T11:56:30.359Z,41.72
2022-11-05T11:59:03.347Z,44.14
2022-11-05T12:02:01.145Z,39.97
2022-11-05T12:05:07.999Z,43.40
2022-11-05T12:07:49.600Z,48.45
2022-11-05T12:10:27.975Z,45.30
2022-11-05T12:13:23.516Z,42.66
2022-11-05T12:15:55.160Z,45.34
2022-11-05T12:18:34.655Z,43.05
2022-11-05T12:21:34.646Z,40.59
2022-11-05T12:24:21.887Z,44.72
2022-11-05T12:27:04.259Z,47.96
2022-11-05T12:29:47.915Z,49.24
2022-11-05T12:32:38.413Z,50.62
2022-11-05T12:35:18.119Z,50.60
2022-11-05T12:37:56.548Z,51.13
2022-11-05T12:40:41.602Z,52.66
2022-11-05T12:43:19.366Z,52.81
2022-11-05T12:45:53.984Z,54.08
2022-11-05T12:48:39.090Z,52.23
2022-11-05T12:51:18.539Z,49.60
2022-11-05T12:53:57.506Z,46.27
2022-11-05T12:56:34.290Z,45.56
2022-11-05T12:59:07.354Z,48.04
2022-11-05T13:01:39.228Z,49.58
2022-11-05T13:04:15.660Z,52.36
2022-11-05T13:06:49.557Z,52.13
2022-11-05T13:09:20.938Z,52.27
2022-11-05T13:11:54.547Z,53.39
2022-11-05T13:14:28.108Z,53.84
2022-11-05T13:17:00.098Z,53.25
2022-11-05T13:19:31.964Z,53.88
2022-11-05T13:22:09.466Z,53.86
2022-11-05T13:24:41.137Z,54.46
2022-11-05T13:27:42.537Z,54.50
2022-11-05T13:30:16.187Z,54.66
2022-11-05T13:32:48.231Z,54.72
2022-11-05T13:35:18.699Z,54.93
2022-11-05T13:38:08.296Z,54.78
2022-11-05T13:40:51.589Z,54.85
2022-11-05T13:43:34.446Z,54.86
2022-11-05T13:46:17.571Z,55.24
2022-11-05T13:49:07.926Z,55.60
2022-11-05T13:51:49.440Z,55.42
2022-11-05T13:54:53.852Z,55.06
2022-11-05T13:57:46.647Z,54.69
2022-11-05T14:00:20.380Z,54.29
2022-11-05T14:02:52.725Z,53.27
2022-11-05T14:05:31.390Z,53.79
2022-11-05T14:08:01.731Z,54.58
2022-11-05T14:10:36.625Z,54.51
2022-11-05T14:13:18.196Z,55.22
2022-11-05T14:16:03.870Z,55.51
2022-11-05T14:18:44.444Z,55.83
2022-11-05T14:21:47.605Z,56.43
2022-11-05T14:24:40.367Z,56.42
2022-11-05T14:27:49.587Z,56.62
2022-11-05T14:30:41.229Z,56.75
2022-11-05T14:33:34.321Z,56.99
2022-11-05T14:36:29.248Z,56.97
2022-11-05T14:39:04.534Z,57.49
2022-11-05T14:41:32.733Z,57.66
2022-11-05T14:44:05.965Z,57.81
2022-11-05T14:46:42.461Z,57.83
2022-11-05T14:49:19.388Z,57.70
2022-11-05T14:51:51.090Z,57.71
2022-11-05T14:54:22.704Z,57.46
2022-11-05T14:56:56.293Z,57.60
2022-11-05T14:59:56.899Z,57.87
2022-11-05T15:02:28.408Z,57.85
2022-11-05T15:05:29.492Z,57.88
2022-11-05T15:07:59.956Z,58.24
2022-11-05T15:10:32.491Z,58.55
2022-11-05T15:13:05.179Z,58.59
2022-11-05T15:15:43.503Z,58.79
2022-11-05T15:18:18.198Z,58.95
2022-11-05T15:20:48.403Z,59.52
2022-11-05T15:23:21.596Z,59.17
2022-11-05T15:25:53.711Z,59.67
2022-11-05T15:28:31.569Z,59.33
2022-11-05T15:31:01.935Z,60.20
2022-11-05T15:33:31.026Z,59.93
2022-11-05T15:36:10.758Z,59.99
2022-11-05T15:38:56.668Z,60.26
2022-11-05T15:41:34.500Z,60.69
2022-11-05T15:44:02.852Z,60.32
2022-11-05T15:46:31.288Z,60.35
2022-11-05T15:49:03.538Z,60.72
2022-11-05T15:51:31.667Z,60.63
2022-11-05T15:56:53.975Z,60.93
2022-11-05T15:59:23.657Z,61.05
2022-11-05T16:01:56.354Z,61.21
2022-11-05T16:04:28.356Z,61.20
2022-11-05T16:07:02.402Z,61.48
2022-11-05T16:09:33.936Z,61.38
2022-11-05T16:12:24.133Z,61.20
2022-11-05T16:14:59.854Z,61.72
2022-11-05T16:17:31.108Z,61.44
2022-11-05T16:19:59.456Z,61.78
2022-11-05T16:22:44.645Z,61.78
2022-11-05T16:25:36.078Z,62.30
2022-11-05T16:28:05.181Z,62.43
2022-11-05T16:30:33.292Z,62.62
2022-11-05T16:33:06.711Z,62.69
2022-11-05T16:35:34.492Z,62.52
2022-11-05T16:38:03.450Z,62.79
2022-11-05T16:40:32.833Z,63.06
2022-11-05T16:43:16.241Z,62.86
2022-11-05T16:45:44.346Z,63.08
2022-11-05T16:48:13.389Z,63.10
2022-11-05T16:50:42.371Z,63.24
2022-11-05T16:53:10.498Z,63.30
2022-11-05T16:55:41.416Z,63.21
2022-11-05T16:58:19.366Z,63.51
2022-11-05T17:00:47.839Z,63.38
2022-11-05T17:03:15.758Z,63.49
2022-11-05T17:05:43.862Z,63.59
2022-11-05T17:08:12.123Z,63.57
2022-11-05T17:10:41.741Z,63.66
2022-11-05T17:13:11.230Z,63.67
2022-11-05T17:15:39.212Z,63.78
2022-11-05T17:18:07.245Z,63.43
2022-11-05T17:20:40.681Z,63.43
2022-11-05T17:23:10.925Z,63.60
2022-11-05T17:25:41.292Z,63.85
2022-11-05T17:28:10.774Z,63.85
2022-11-05T17:30:41.642Z,63.59
2022-11-05T17:33:11.831Z,63.88
2022-11-05T17:35:40.619Z,63.59
2022-11-05T17:38:08.746Z,63.61
2022-11-05T17:40:37.813Z,63.65
2022-11-05T17:43:07.302Z,63.74
2022-11-05T17:45:35.787Z,63.38
2022-11-05T17:48:05.017Z,63.33
2022-11-05T17:50:33.035Z,63.27
2022-11-05T17:53:00.959Z,63.46
2022-11-05T17:55:28.977Z,63.45
2022-11-05T17:57:56.949Z,63.48
2022-11-05T18:00:26.657Z,63.57
2022-11-05T18:02:55.336Z,63.11
2022-11-05T18:05:24.096Z,63.23
2022-11-05T18:07:52.330Z,63.01
2022-11-05T18:10:20.518Z,62.34
2022-11-05T18:12:48.522Z,62.29
2022-11-05T18:15:17.091Z,62.47
2022-11-05T18:17:47.660Z,62.30
2022-11-05T18:20:19.194Z,62.36
2022-11-05T18:22:49.936Z,62.19
2022-11-05T18:25:18.836Z,61.79
2022-11-05T18:27:46.779Z,61.78
2022-11-05T18:30:15.886Z,61.96
2022-11-05T18:32:44.245Z,61.79
2022-11-05T18:35:14.396Z,62.06
2022-11-05T18:37:42.523Z,61.74
2022-11-05T18:40:11.332Z,61.95
2022-11-05T18:42:39.504Z,62.13
2022-11-05T18:45:08.581Z,62.25
2022-11-05T18:47:36.750Z,62.57
2022-11-05T18:50:06.428Z,62.07
2022-11-05T18:52:35.906Z,62.21
2022-11-05T18:55:03.941Z,62.19
2022-11-05T18:57:34.051Z,62.17
2022-11-05T19:00:02.054Z,62.46
2022-11-05T19:02:30.324Z,62.72
2022-11-05T19:07:47.850Z,62.46
2022-11-05T19:10:15.821Z,62.56
2022-11-05T19:12:44.110Z,62.59
2022-11-05T19:15:12.430Z,62.17
2022-11-05T19:17:40.536Z,61.64
2022-11-05T19:20:10.126Z,61.40
2022-11-05T19:22:38.238Z,61.74
2022-11-05T19:25:09.051Z,61.40
2022-11-05T19:27:37.603Z,60.87
2022-11-05T19:30:06.251Z,60.92
2022-11-05T19:32:34.324Z,61.04
2022-11-05T19:35:02.292Z,60.54
2022-11-05T19:37:30.522Z,60.77
2022-11-05T19:39:58.583Z,61.04
2022-11-05T19:42:28.123Z,61.05
2022-11-05T19:44:56.098Z,61.00
2022-11-05T19:47:24.182Z,61.39
2022-11-05T19:49:52.142Z,61.37
2022-11-05T19:52:20.095Z,62.09
2022-11-05T19:54:48.134Z,61.64
2022-11-05T19:57:16.193Z,61.83
2022-11-05T19:59:45.519Z,62.51
2022-11-05T20:02:16.466Z,62.30
2022-11-05T20:04:45.180Z,62.85
2022-11-05T20:07:13.162Z,62.94
2022-11-05T20:09:41.390Z,62.68
2022-11-05T20:12:09.594Z,62.70
2022-11-05T20:14:37.854Z,62.54
2022-11-05T20:17:07.282Z,62.71
2022-11-05T20:19:35.416Z,62.30
2022-11-05T20:22:03.448Z,62.91
2022-11-05T20:24:31.599Z,62.54
2022-11-05T20:26:59.587Z,62.32
2022-11-05T20:29:33.918Z,62.44
2022-11-05T20:32:03.016Z,62.50
2022-11-05T20:34:34.020Z,62.63
2022-11-05T20:37:02.293Z,62.71
2022-11-05T20:39:30.344Z,62.57
2022-11-05T20:42:00.433Z,62.95
2022-11-05T20:44:31.417Z,62.40
2022-11-05T20:46:59.470Z,62.51
2022-11-05T20:49:27.632Z,62.72
2022-11-05T20:51:57.384Z,62.71
2022-11-05T20:54:25.600Z,62.60
2022-11-05T20:56:53.606Z,62.79
2022-11-05T20:59:21.629Z,62.88
2022-11-05T21:01:51.859Z,63.03
2022-11-05T21:04:19.987Z,62.78
2022-11-05T21:06:47.938Z,62.83
2022-11-05T21:09:18.698Z,62.72
2022-11-05T21:12:04.048Z,62.75
2022-11-05T21:14:32.242Z,62.76
2022-11-05T21:17:00.182Z,62.92
2022-11-05T21:19:29.391Z,62.92
2022-11-05T21:21:57.476Z,62.86
2022-11-05T21:24:26.818Z,63.16
2022-11-05T21:26:54.876Z,63.20
2022-11-05T21:29:22.868Z,63.24
2022-11-05T21:31:50.994Z,62.99
2022-11-05T21:34:19.818Z,62.69
2022-11-05T21:36:48.115Z,62.97
2022-11-05T21:39:16.114Z,62.74
2022-11-05T21:41:45.516Z,62.65
2022-11-05T21:44:13.548Z,62.69
2022-11-05T21:46:41.523Z,62.43
2022-11-05T21:49:09.461Z,62.80
2022-11-05T21:51:55.031Z,63.38
2022-11-05T21:54:40.356Z,63.13
2022-11-05T21:57:33.257Z,62.92
2022-11-05T22:00:03.686Z,62.73
2022-11-05T22:02:32.914Z,62.77
2022-11-05T22:05:02.163Z,62.86
2022-11-05T22:07:33.224Z,62.44
2022-11-05T22:10:01.650Z,62.65
2022-11-05T22:12:32.216Z,62.74
2022-11-05T22:15:00.322Z,62.35
2022-11-05T22:17:28.774Z,62.25
2022-11-05T22:19:57.231Z,62.51
2022-11-05T22:22:25.350Z,62.48
2022-11-05T22:24:53.407Z,62.50
2022-11-05T22:27:22.523Z,62.53
2022-11-05T22:29:51.890Z,62.63
2022-11-05T22:32:20.020Z,63.08
2022-11-05T22:34:48.967Z,63.59
2022-11-05T22:37:17.317Z,64.35
2022-11-05T22:39:45.314Z,64.57
2022-11-05T22:42:13.337Z,64.54
2022-11-05T22:44:41.436Z,65.10
2022-11-05T22:47:10.800Z,64.83
2022-11-05T22:49:39.061Z,65.38
2022-11-05T22:52:07.109Z,65.54
2022-11-05T22:54:39.009Z,65.49
2022-11-05T22:57:08.546Z,65.97
2022-11-05T22:59:36.568Z,66.30
2022-11-05T23:02:09.602Z,65.85
2022-11-05T23:04:40.079Z,66.33
2022-11-05T23:07:27.915Z,65.98
2022-11-05T23:10:14.116Z,66.09
2022-11-05T23:12:43.562Z,66.19
2022-11-05T23:15:32.365Z,66.07
2022-11-05T23:18:17.820Z,66.00
2022-11-05T23:21:04.553Z,66.04
2022-11-05T23:23:49.935Z,66.38
2022-11-05T23:26:35.310Z,66.07
2022-11-05T23:29:03.361Z,66.31
2022-11-05T23:31:48.932Z,66.19
2022-11-05T23:34:16.940Z,66.51
2022-11-05T23:37:03.626Z,66.37
2022-11-05T23:39:31.648Z,65.92
2022-11-05T23:42:17.397Z,65.74
2022-11-05T23:45:02.921Z,66.26
2022-11-05T23:47:48.583Z,65.99
2022-11-05T23:50:16.685Z,66.07
2022-11-05T23:52:46.104Z,66.34
2022-11-05T23:55:14.113Z,66.71
2022-11-05T23:57:42.137Z,66.69
